GFA151 VTBS-OBBI
Flight info
| Callsign | GFA151 |
|---|---|
| Flight time | N/A |
| Altitude | 38000 |
| Route | PASTO1G PASTO L301 ANKOX/N0463F400 L301 RAGMA N571 MENSA DCT EGTAG P699 ALKAN M556 ORDIG |
| Aircraft | A343/H-SDE2E3FGHIJ4J5M1RWXY/LB1D1 |
Departure
| Time | 2026-05-05 03:12 |
|---|---|
| Airport | Suvarnabhumi Airport (VTBS) |
Arrival
| Time | N/A |
|---|---|
| Airport | Bahrain International Airport (OBBI) |
| Time | Latitude | Longitude | Altitude | Speed | Heading |
|---|---|---|---|---|---|
| 2026-05-05 02:51 | 13.68993 | 100.74547 | 17 ft | 0 kts | 104° |
| 2026-05-05 03:01 | 13.68998 | 100.74528 | 19 ft | 4 kts | 110° |
| 2026-05-05 03:02 | 13.69008 | 100.74502 | 22 ft | 4 kts | 119° |
| 2026-05-05 03:02 | 13.69023 | 100.74480 | 19 ft | 4 kts | 135° |
| 2026-05-05 03:02 | 13.69044 | 100.74465 | 18 ft | 4 kts | 175° |
| 2026-05-05 03:02 | 13.69054 | 100.74465 | 19 ft | 0 kts | 194° |
| 2026-05-05 03:04 | 13.69045 | 100.74463 | 18 ft | 3 kts | 194° |
| 2026-05-05 03:05 | 13.69017 | 100.74455 | 19 ft | 4 kts | 194° |
| 2026-05-05 03:05 | 13.68986 | 100.74447 | 17 ft | 5 kts | 194° |
| 2026-05-05 03:05 | 13.68951 | 100.74438 | 17 ft | 5 kts | 194° |
| 2026-05-05 03:05 | 13.68905 | 100.74426 | 17 ft | 9 kts | 194° |
| 2026-05-05 03:06 | 13.68836 | 100.74409 | 17 ft | 11 kts | 193° |
| 2026-05-05 03:06 | 13.68787 | 100.74358 | 17 ft | 11 kts | 261° |
| 2026-05-05 03:06 | 13.68802 | 100.74278 | 17 ft | 12 kts | 284° |
| 2026-05-05 03:06 | 13.68851 | 100.74221 | 17 ft | 12 kts | 348° |
| 2026-05-05 03:07 | 13.68936 | 100.74235 | 17 ft | 13 kts | 14° |
| 2026-05-05 03:07 | 13.69033 | 100.74260 | 17 ft | 15 kts | 14° |
| 2026-05-05 03:07 | 13.69139 | 100.74288 | 17 ft | 17 kts | 14° |
| 2026-05-05 03:07 | 13.69257 | 100.74319 | 17 ft | 18 kts | 14° |
| 2026-05-05 03:08 | 13.69384 | 100.74353 | 17 ft | 19 kts | 14° |
| 2026-05-05 03:08 | 13.69518 | 100.74388 | 17 ft | 20 kts | 14° |
| 2026-05-05 03:08 | 13.69656 | 100.74424 | 17 ft | 21 kts | 14° |
| 2026-05-05 03:08 | 13.69799 | 100.74461 | 17 ft | 22 kts | 14° |
| 2026-05-05 03:09 | 13.69944 | 100.74499 | 17 ft | 21 kts | 14° |
| 2026-05-05 03:09 | 13.70085 | 100.74536 | 17 ft | 20 kts | 15° |
| 2026-05-05 03:09 | 13.70206 | 100.74569 | 17 ft | 16 kts | 14° |
| 2026-05-05 03:09 | 13.70299 | 100.74555 | 17 ft | 14 kts | 309° |
| 2026-05-05 03:10 | 13.70330 | 100.74465 | 17 ft | 13 kts | 285° |
| 2026-05-05 03:10 | 13.70347 | 100.74374 | 18 ft | 12 kts | 268° |
| 2026-05-05 03:10 | 13.70305 | 100.74306 | 19 ft | 11 kts | 209° |
| 2026-05-05 03:10 | 13.70229 | 100.74282 | 19 ft | 12 kts | 195° |
| 2026-05-05 03:11 | 13.69980 | 100.74216 | 17 ft | 66 kts | 194° |
| 2026-05-05 03:11 | 13.69365 | 100.74055 | 16 ft | 115 kts | 194° |
| 2026-05-05 03:11 | 13.68448 | 100.73814 | 18 ft | 155 kts | 194° |
| 2026-05-05 03:11 | 13.67322 | 100.73524 | 291 ft | 168 kts | 194° |
| 2026-05-05 03:12 | 13.66179 | 100.73216 | 715 ft | 175 kts | 195° |
| 2026-05-05 03:12 | 13.64985 | 100.72901 | 1109 ft | 183 kts | 195° |
| 2026-05-05 03:12 | 13.63689 | 100.72561 | 1316 ft | 201 kts | 195° |
| 2026-05-05 03:12 | 13.62251 | 100.72183 | 1456 ft | 226 kts | 194° |
| 2026-05-05 03:13 | 13.60655 | 100.71763 | 1682 ft | 248 kts | 194° |
| 2026-05-05 03:13 | 13.58926 | 100.71309 | 2099 ft | 261 kts | 194° |
| 2026-05-05 03:13 | 13.57149 | 100.70840 | 2659 ft | 267 kts | 193° |
| 2026-05-05 03:13 | 13.55386 | 100.70262 | 3224 ft | 272 kts | 205° |
| 2026-05-05 03:14 | 13.53918 | 100.69044 | 3808 ft | 275 kts | 235° |
| 2026-05-05 03:14 | 13.53227 | 100.67211 | 4413 ft | 278 kts | 265° |
| 2026-05-05 03:14 | 13.53427 | 100.65234 | 5003 ft | 280 kts | 283° |
| 2026-05-05 03:14 | 13.53920 | 100.63281 | 5557 ft | 284 kts | 285° |
| 2026-05-05 03:15 | 13.54446 | 100.61308 | 6142 ft | 287 kts | 285° |
| 2026-05-05 03:15 | 13.55171 | 100.59411 | 6637 ft | 291 kts | 302° |
| 2026-05-05 03:15 | 13.56564 | 100.57929 | 7190 ft | 290 kts | 330° |
| 2026-05-05 03:15 | 13.57989 | 100.57334 | 7656 ft | 288 kts | 351° |
| 2026-05-05 03:16 | 13.59946 | 100.57211 | 8212 ft | 287 kts | 2° |
| 2026-05-05 03:16 | 13.61950 | 100.57274 | 8794 ft | 290 kts | 4° |
| 2026-05-05 03:16 | 13.63975 | 100.57352 | 9380 ft | 292 kts | 3° |
| 2026-05-05 03:16 | 13.66022 | 100.57419 | 9831 ft | 294 kts | 4° |
| 2026-05-05 03:17 | 13.68078 | 100.57488 | 10088 ft | 298 kts | 2° |
| 2026-05-05 03:17 | 13.70211 | 100.57552 | 10295 ft | 313 kts | 3° |
| 2026-05-05 03:17 | 13.72416 | 100.57614 | 10485 ft | 328 kts | 3° |
| 2026-05-05 03:17 | 13.74745 | 100.57677 | 10691 ft | 341 kts | 2° |
| 2026-05-05 03:18 | 13.77167 | 100.57591 | 10875 ft | 354 kts | 352° |
| 2026-05-05 03:18 | 13.79501 | 100.56736 | 11242 ft | 360 kts | 332° |
| 2026-05-05 03:18 | 13.81676 | 100.55427 | 11705 ft | 362 kts | 329° |
| 2026-05-05 03:18 | 13.83829 | 100.54056 | 12132 ft | 365 kts | 329° |
| 2026-05-05 03:19 | 13.88179 | 100.51292 | 13021 ft | 369 kts | 329° |
| 2026-05-05 03:19 | 13.90371 | 100.49905 | 13452 ft | 372 kts | 329° |
| 2026-05-05 03:19 | 13.92465 | 100.48321 | 13870 ft | 376 kts | 317° |
| 2026-05-05 03:20 | 13.94029 | 100.46169 | 14243 ft | 380 kts | 297° |
| 2026-05-05 03:20 | 13.94811 | 100.43592 | 14645 ft | 382 kts | 281° |
| 2026-05-05 03:20 | 13.95223 | 100.40878 | 15006 ft | 385 kts | 278° |
| 2026-05-05 03:20 | 13.95588 | 100.38122 | 15384 ft | 387 kts | 278° |
| 2026-05-05 03:21 | 13.95958 | 100.35359 | 15786 ft | 388 kts | 278° |
| 2026-05-05 03:21 | 13.96331 | 100.32637 | 16173 ft | 390 kts | 278° |
| 2026-05-05 03:21 | 13.96715 | 100.29867 | 16549 ft | 392 kts | 278° |
| 2026-05-05 03:21 | 13.97105 | 100.27075 | 16916 ft | 394 kts | 278° |
| 2026-05-05 03:22 | 13.97459 | 100.24276 | 17296 ft | 396 kts | 275° |
| 2026-05-05 03:22 | 13.97625 | 100.21431 | 17685 ft | 398 kts | 272° |
| 2026-05-05 03:22 | 13.97730 | 100.18578 | 18096 ft | 399 kts | 272° |
| 2026-05-05 03:22 | 13.97830 | 100.15713 | 18444 ft | 402 kts | 272° |
| 2026-05-05 03:23 | 13.97931 | 100.12827 | 18774 ft | 403 kts | 272° |
| 2026-05-05 03:23 | 13.98033 | 100.09945 | 19136 ft | 404 kts | 272° |
| 2026-05-05 03:23 | 13.98137 | 100.07050 | 19489 ft | 405 kts | 272° |
| 2026-05-05 03:23 | 13.98244 | 100.04143 | 19837 ft | 407 kts | 272° |
| 2026-05-05 03:24 | 13.98348 | 100.01223 | 20166 ft | 409 kts | 272° |
| 2026-05-05 03:24 | 13.98452 | 99.98282 | 20523 ft | 410 kts | 272° |
| 2026-05-05 03:24 | 13.98555 | 99.95383 | 20881 ft | 411 kts | 272° |
| 2026-05-05 03:24 | 13.98660 | 99.92435 | 21276 ft | 411 kts | 272° |
| 2026-05-05 03:25 | 13.98765 | 99.89471 | 21553 ft | 415 kts | 272° |
| 2026-05-05 03:25 | 13.98870 | 99.86495 | 21849 ft | 417 kts | 272° |
| 2026-05-05 03:25 | 13.98976 | 99.83501 | 22176 ft | 419 kts | 272° |
| 2026-05-05 03:25 | 13.99081 | 99.80498 | 22496 ft | 420 kts | 272° |
| 2026-05-05 03:26 | 13.99187 | 99.77481 | 22851 ft | 421 kts | 272° |
| 2026-05-05 03:26 | 13.99293 | 99.74446 | 23113 ft | 424 kts | 272° |
| 2026-05-05 03:26 | 13.99399 | 99.71405 | 23364 ft | 428 kts | 272° |
| 2026-05-05 03:26 | 13.99504 | 99.68378 | 23663 ft | 428 kts | 272° |
| 2026-05-05 03:27 | 13.99610 | 99.65308 | 23931 ft | 429 kts | 272° |
| 2026-05-05 03:27 | 13.99716 | 99.62222 | 24187 ft | 431 kts | 272° |
| 2026-05-05 03:27 | 13.99822 | 99.59133 | 24428 ft | 433 kts | 272° |
| 2026-05-05 03:27 | 13.99928 | 99.56024 | 24669 ft | 435 kts | 272° |
| 2026-05-05 03:28 | 13.99999 | 99.53950 | 24868 ft | 436 kts | 272° |
| 2026-05-05 03:28 | 14.00106 | 99.50783 | 25149 ft | 437 kts | 272° |
| 2026-05-05 03:28 | 14.00244 | 99.47694 | 25404 ft | 439 kts | 274° |
| 2026-05-05 03:28 | 14.00508 | 99.44543 | 25656 ft | 441 kts | 276° |
| 2026-05-05 03:29 | 14.00838 | 99.41397 | 25925 ft | 443 kts | 276° |
| 2026-05-05 03:29 | 14.01187 | 99.38243 | 26190 ft | 444 kts | 276° |
| 2026-05-05 03:29 | 14.01532 | 99.35070 | 26460 ft | 445 kts | 276° |
| 2026-05-05 03:29 | 14.01860 | 99.31929 | 26709 ft | 447 kts | 276° |
| 2026-05-05 03:30 | 14.02180 | 99.28737 | 26969 ft | 449 kts | 276° |
| 2026-05-05 03:30 | 14.02491 | 99.25532 | 27227 ft | 450 kts | 276° |
| 2026-05-05 03:30 | 14.02798 | 99.22308 | 27493 ft | 452 kts | 276° |
| 2026-05-05 03:30 | 14.03103 | 99.19081 | 27744 ft | 454 kts | 276° |
| 2026-05-05 03:31 | 14.03408 | 99.15843 | 27994 ft | 455 kts | 276° |
| 2026-05-05 03:31 | 14.03714 | 99.12592 | 28239 ft | 457 kts | 276° |
| 2026-05-05 03:31 | 14.04021 | 99.09330 | 28484 ft | 458 kts | 276° |
| 2026-05-05 03:31 | 14.04329 | 99.06062 | 28799 ft | 458 kts | 276° |
| 2026-05-05 03:32 | 14.04636 | 99.02796 | 29047 ft | 460 kts | 276° |
| 2026-05-05 03:32 | 14.04946 | 98.99510 | 29230 ft | 463 kts | 276° |
| 2026-05-05 03:32 | 14.05257 | 98.96199 | 29422 ft | 465 kts | 276° |
| 2026-05-05 03:32 | 14.05526 | 98.92874 | 29670 ft | 467 kts | 274° |
| 2026-05-05 03:33 | 14.05745 | 98.89519 | 29922 ft | 468 kts | 274° |
| 2026-05-05 03:33 | 14.05940 | 98.86206 | 30132 ft | 470 kts | 274° |
| 2026-05-05 03:33 | 14.06136 | 98.82803 | 30315 ft | 471 kts | 274° |
| 2026-05-05 03:33 | 14.06334 | 98.79468 | 30521 ft | 472 kts | 274° |
| 2026-05-05 03:34 | 14.06541 | 98.76087 | 30732 ft | 474 kts | 274° |
| 2026-05-05 03:34 | 14.06755 | 98.72691 | 30926 ft | 475 kts | 274° |
| 2026-05-05 03:34 | 14.06973 | 98.69297 | 31173 ft | 474 kts | 274° |
| 2026-05-05 03:34 | 14.07191 | 98.65906 | 31423 ft | 475 kts | 274° |
| 2026-05-05 03:35 | 14.07409 | 98.62518 | 31723 ft | 473 kts | 274° |
| 2026-05-05 03:35 | 14.07627 | 98.59142 | 32044 ft | 472 kts | 274° |
| 2026-05-05 03:35 | 14.07843 | 98.55775 | 32338 ft | 470 kts | 274° |
| 2026-05-05 03:35 | 14.08058 | 98.52416 | 32631 ft | 469 kts | 274° |
| 2026-05-05 03:36 | 14.08271 | 98.49065 | 32905 ft | 468 kts | 274° |
| 2026-05-05 03:36 | 14.08483 | 98.45722 | 33189 ft | 467 kts | 274° |
| 2026-05-05 03:36 | 14.08694 | 98.42377 | 33452 ft | 466 kts | 274° |
| 2026-05-05 03:36 | 14.08905 | 98.39046 | 33732 ft | 465 kts | 274° |
| 2026-05-05 03:37 | 14.09112 | 98.35761 | 34001 ft | 464 kts | 274° |
| 2026-05-05 03:37 | 14.09320 | 98.32453 | 34202 ft | 463 kts | 274° |
| 2026-05-05 03:37 | 14.09529 | 98.29133 | 34420 ft | 463 kts | 274° |
| 2026-05-05 03:37 | 14.09737 | 98.25812 | 34636 ft | 462 kts | 274° |
| 2026-05-05 03:38 | 14.09969 | 98.22513 | 34831 ft | 461 kts | 276° |
| 2026-05-05 03:38 | 14.10502 | 98.19251 | 35018 ft | 461 kts | 283° |
| 2026-05-05 03:38 | 14.11221 | 98.16037 | 35214 ft | 460 kts | 283° |
| 2026-05-05 03:38 | 14.11982 | 98.12879 | 35408 ft | 459 kts | 284° |
| 2026-05-05 03:39 | 14.12780 | 98.09688 | 35601 ft | 459 kts | 284° |
| 2026-05-05 03:39 | 14.13587 | 98.06511 | 35783 ft | 458 kts | 284° |
| 2026-05-05 03:39 | 14.14395 | 98.03337 | 35953 ft | 458 kts | 284° |
| 2026-05-05 03:39 | 14.15199 | 98.00166 | 36127 ft | 457 kts | 284° |
| 2026-05-05 03:40 | 14.15998 | 97.96999 | 36292 ft | 456 kts | 284° |
| 2026-05-05 03:40 | 14.16794 | 97.93831 | 36438 ft | 457 kts | 284° |
| 2026-05-05 03:40 | 14.17588 | 97.90662 | 36565 ft | 457 kts | 284° |
| 2026-05-05 03:40 | 14.18380 | 97.87494 | 36732 ft | 456 kts | 284° |
| 2026-05-05 03:41 | 14.19170 | 97.84328 | 36891 ft | 456 kts | 284° |
| 2026-05-05 03:41 | 14.19959 | 97.81166 | 37053 ft | 455 kts | 284° |
| 2026-05-05 03:41 | 14.20739 | 97.78036 | 37189 ft | 455 kts | 284° |
| 2026-05-05 03:41 | 14.21525 | 97.74885 | 37342 ft | 454 kts | 284° |
| 2026-05-05 03:42 | 14.22311 | 97.71729 | 37500 ft | 454 kts | 284° |
| 2026-05-05 03:42 | 14.23097 | 97.68573 | 37641 ft | 453 kts | 284° |
| 2026-05-05 03:42 | 14.23880 | 97.65428 | 37794 ft | 453 kts | 284° |
| 2026-05-05 03:42 | 14.24663 | 97.62278 | 37902 ft | 453 kts | 284° |
| 2026-05-05 03:43 | 14.26229 | 97.55979 | 37924 ft | 453 kts | 284° |
| 2026-05-05 03:43 | 14.27778 | 97.49739 | 37925 ft | 451 kts | 284° |
| 2026-05-05 03:44 | 14.29334 | 97.43460 | 37928 ft | 451 kts | 284° |
| 2026-05-05 03:44 | 14.30891 | 97.37172 | 37927 ft | 451 kts | 284° |
| 2026-05-05 03:45 | 14.32434 | 97.30935 | 37925 ft | 451 kts | 284° |
| 2026-05-05 03:45 | 14.33986 | 97.24654 | 37925 ft | 451 kts | 284° |
| 2026-05-05 03:46 | 14.35535 | 97.18373 | 37925 ft | 451 kts | 284° |
| 2026-05-05 03:46 | 14.37082 | 97.12096 | 37925 ft | 451 kts | 284° |
| 2026-05-05 03:47 | 14.38629 | 97.05811 | 37928 ft | 452 kts | 284° |
| 2026-05-05 03:47 | 14.40173 | 96.99532 | 37928 ft | 452 kts | 284° |
| 2026-05-05 03:48 | 14.41717 | 96.93245 | 37925 ft | 451 kts | 284° |
| 2026-05-05 03:48 | 14.43258 | 96.86959 | 37925 ft | 451 kts | 284° |
| 2026-05-05 03:49 | 14.44786 | 96.80721 | 37928 ft | 452 kts | 284° |
| 2026-05-05 03:49 | 14.46326 | 96.74427 | 37927 ft | 453 kts | 284° |
| 2026-05-05 03:50 | 14.47868 | 96.68118 | 37925 ft | 453 kts | 283° |
| 2026-05-05 03:50 | 14.49406 | 96.61815 | 37925 ft | 453 kts | 284° |
| 2026-05-05 03:51 | 14.50937 | 96.55534 | 37928 ft | 454 kts | 284° |
| 2026-05-05 03:51 | 14.52476 | 96.49213 | 37928 ft | 454 kts | 284° |
| 2026-05-05 03:52 | 14.54014 | 96.42888 | 37925 ft | 454 kts | 284° |
| 2026-05-05 03:52 | 14.55553 | 96.36552 | 37924 ft | 455 kts | 283° |
| 2026-05-05 03:53 | 14.57084 | 96.30237 | 37925 ft | 455 kts | 283° |
| 2026-05-05 03:53 | 14.58622 | 96.23891 | 37925 ft | 455 kts | 283° |
| 2026-05-05 03:54 | 14.60159 | 96.17538 | 37925 ft | 456 kts | 283° |
| 2026-05-05 03:54 | 14.61686 | 96.11219 | 37925 ft | 456 kts | 283° |
| 2026-05-05 03:55 | 14.63222 | 96.04855 | 37925 ft | 456 kts | 283° |
| 2026-05-05 03:55 | 14.64753 | 95.98500 | 37925 ft | 456 kts | 283° |
| 2026-05-05 03:56 | 14.66285 | 95.92136 | 37925 ft | 456 kts | 283° |
| 2026-05-05 03:56 | 14.67814 | 95.85778 | 37925 ft | 456 kts | 283° |
| 2026-05-05 03:57 | 14.69339 | 95.79426 | 37925 ft | 456 kts | 283° |
| 2026-05-05 03:57 | 14.70866 | 95.73057 | 37925 ft | 456 kts | 283° |
| 2026-05-05 03:58 | 14.72382 | 95.66731 | 37925 ft | 456 kts | 283° |
| 2026-05-05 03:58 | 14.73905 | 95.60360 | 37925 ft | 456 kts | 283° |
| 2026-05-05 03:59 | 14.75426 | 95.53995 | 37925 ft | 456 kts | 283° |
| 2026-05-05 03:59 | 14.76946 | 95.47622 | 37927 ft | 456 kts | 283° |
| 2026-05-05 04:00 | 14.78465 | 95.41250 | 37930 ft | 456 kts | 283° |
| 2026-05-05 04:00 | 14.79971 | 95.34921 | 37931 ft | 456 kts | 283° |
| 2026-05-05 04:01 | 14.81483 | 95.28558 | 37930 ft | 455 kts | 283° |
| 2026-05-05 04:01 | 14.82994 | 95.22192 | 37930 ft | 455 kts | 283° |
| 2026-05-05 04:02 | 14.84499 | 95.15843 | 37930 ft | 455 kts | 283° |
| 2026-05-05 04:02 | 14.86002 | 95.09493 | 37930 ft | 455 kts | 283° |
| 2026-05-05 04:03 | 14.87506 | 95.03135 | 37930 ft | 455 kts | 283° |
| 2026-05-05 04:03 | 14.89006 | 94.96781 | 37932 ft | 455 kts | 283° |
| 2026-05-05 04:04 | 14.90497 | 94.90456 | 37930 ft | 456 kts | 283° |
| 2026-05-05 04:04 | 14.91997 | 94.84087 | 37930 ft | 456 kts | 283° |
| 2026-05-05 04:05 | 14.93496 | 94.77716 | 37930 ft | 456 kts | 283° |
| 2026-05-05 04:05 | 14.94996 | 94.71329 | 37930 ft | 456 kts | 283° |
| 2026-05-05 04:06 | 14.96492 | 94.64949 | 37930 ft | 456 kts | 283° |
| 2026-05-05 04:06 | 14.97977 | 94.58612 | 37930 ft | 456 kts | 283° |
| 2026-05-05 04:07 | 14.99471 | 94.52224 | 37928 ft | 457 kts | 283° |
| 2026-05-05 04:07 | 15.00715 | 94.46903 | 37927 ft | 458 kts | 283° |
| 2026-05-05 04:08 | 15.02211 | 94.40495 | 37927 ft | 458 kts | 283° |
| 2026-05-05 04:08 | 15.03705 | 94.34082 | 37928 ft | 458 kts | 283° |
| 2026-05-05 04:09 | 15.05197 | 94.27675 | 37925 ft | 458 kts | 283° |
| 2026-05-05 04:09 | 15.06679 | 94.21297 | 37925 ft | 458 kts | 283° |
| 2026-05-05 04:10 | 15.08167 | 94.14889 | 37925 ft | 458 kts | 283° |
| 2026-05-05 04:10 | 15.09655 | 94.08470 | 37925 ft | 458 kts | 283° |
| 2026-05-05 04:11 | 15.11139 | 94.02058 | 37925 ft | 458 kts | 283° |
| 2026-05-05 04:11 | 15.12624 | 93.95638 | 37925 ft | 458 kts | 283° |
| 2026-05-05 04:12 | 15.14106 | 93.89216 | 37922 ft | 458 kts | 283° |
| 2026-05-05 04:12 | 15.15578 | 93.82831 | 37922 ft | 458 kts | 283° |
| 2026-05-05 04:13 | 15.17057 | 93.76410 | 37924 ft | 457 kts | 283° |
| 2026-05-05 04:13 | 15.18527 | 93.70016 | 37925 ft | 457 kts | 283° |
| 2026-05-05 04:14 | 15.20000 | 93.63601 | 37922 ft | 457 kts | 283° |
| 2026-05-05 04:14 | 15.21461 | 93.57231 | 37922 ft | 457 kts | 283° |
| 2026-05-05 04:15 | 15.22930 | 93.50817 | 37925 ft | 457 kts | 283° |
| 2026-05-05 04:15 | 15.24393 | 93.44416 | 37925 ft | 457 kts | 283° |
| 2026-05-05 04:16 | 15.25855 | 93.38015 | 37925 ft | 457 kts | 283° |
| 2026-05-05 04:16 | 15.27315 | 93.31612 | 37925 ft | 457 kts | 283° |
| 2026-05-05 04:17 | 15.28767 | 93.25237 | 37922 ft | 457 kts | 283° |
| 2026-05-05 04:17 | 15.30225 | 93.18826 | 37922 ft | 457 kts | 283° |
| 2026-05-05 04:18 | 15.31680 | 93.12421 | 37925 ft | 457 kts | 283° |
| 2026-05-05 04:18 | 15.33127 | 93.06037 | 37925 ft | 457 kts | 283° |
| 2026-05-05 04:19 | 15.34577 | 92.99633 | 37925 ft | 457 kts | 283° |
| 2026-05-05 04:19 | 15.36029 | 92.93216 | 37925 ft | 457 kts | 283° |
| 2026-05-05 04:20 | 15.37478 | 92.86799 | 37927 ft | 457 kts | 283° |
| 2026-05-05 04:20 | 15.38924 | 92.80388 | 37927 ft | 457 kts | 283° |
| 2026-05-05 04:21 | 15.40368 | 92.73977 | 37927 ft | 457 kts | 283° |
| 2026-05-05 04:21 | 15.41803 | 92.67594 | 37927 ft | 457 kts | 283° |
| 2026-05-05 04:22 | 15.43250 | 92.61181 | 37925 ft | 456 kts | 283° |
| 2026-05-05 04:22 | 15.44811 | 92.54807 | 37925 ft | 455 kts | 284° |
| 2026-05-05 04:23 | 15.46405 | 92.48490 | 37927 ft | 455 kts | 284° |